Pagrindinis puslapis
METAR-TAF:

METAR-TAF

Oro uostai :

Chartumas, Sudanas

platuma: 15-36N, ilguma: 032-33E, Aukštis: 382 m

Dabartinis oras

Ataskaita buvo paskelbta 30 minutes, ne 04:30 UTC
Vėjas 10 kt iš Šiaurės
Temperatūra 16°C
Drėgmė 27%
Slėgis 1015 hPa
Matomumas 10 km arba daugiau
nėra debesų žemiau 1500 m ir nėra kamuolinių lietaus debesų

METAR: HSSS 220430Z 36010KT CAVOK 16/M03 Q1015 NOSIG

Laikas: 07:00 (05:00 UTC)

Prognozė

Ataskaita buvo paskelbta 6 valandos ir 0 minutes, ne 23:00 UTC
Prognozė galioja nuo 22 metu 00 UTC su 23 metu 06 UTC
Vėjas 8 kt iš Šiaurės/Šiaurės Vakarų su gūsio iki 18 kt
Matomumas 10 km arba daugiau
nėra debesų žemiau 1500 m ir nėra kamuolinių lietaus debesų
Laikinai
nuo 22 metu 00 UTC su 22 metu 08 UTC
Matomumas: 6000 m

TAF: HSSS 212300Z 2200/2306 34008G18KT CAVOK TEMPO 2200/2208 6000 NSC

Orai ataskaitas ir orų prognozės (METAR, TAF).

turimą stotys yra geltonos ir raudonos taškus žemėlapyje.

Perkelti pele per norėdami pamatyti stoties vardą.

Tada spustelėkite, norėdami matyti oro stebėjimo ir prognozės.

Norėdami pakeisti žemėlapį: spustelėkite ant žalios mygtukų su juodo kryžiaus žemyn,; žalią mygtuką su brūkšneliu, jei norite nutolinti; arba žalių rodyklių gretimoms žemėlapius.


METAR-TAF: